createdAt,value
2017-11-09T00:00:42.990Z,30.77
2017-11-09T00:03:11.404Z,34.17
2017-11-09T00:05:45.460Z,29.90
2017-11-09T00:08:13.875Z,31.00
2017-11-09T00:10:42.284Z,29.40
2017-11-09T00:13:10.711Z,33.40
2017-11-09T00:15:39.141Z,34.03
2017-11-09T00:18:08.333Z,33.30
2017-11-09T00:20:36.765Z,33.77
2017-11-09T00:23:06.411Z,27.90
2017-11-09T00:25:34.824Z,31.03
2017-11-09T00:28:04.019Z,33.87
2017-11-09T00:30:33.191Z,25.77
2017-11-09T00:33:01.617Z,26.87
2017-11-09T00:35:30.047Z,32.10
2017-11-09T00:37:58.460Z,29.73
2017-11-09T00:40:26.880Z,35.67
2017-11-09T00:42:55.320Z,27.47
2017-11-09T00:45:23.742Z,26.60
2017-11-09T00:47:52.163Z,31.27
2017-11-09T00:50:21.370Z,32.37
2017-11-09T00:52:50.554Z,31.57
2017-11-09T00:55:19.215Z,25.87
2017-11-09T00:57:47.647Z,25.63
2017-11-09T01:00:16.064Z,27.87
2017-11-09T01:02:44.480Z,28.70
2017-11-09T01:05:13.683Z,26.83
2017-11-09T01:07:42.869Z,30.20
2017-11-09T01:10:12.064Z,32.87
2017-11-09T01:12:41.262Z,25.17
2017-11-09T01:15:10.483Z,31.70
2017-11-09T01:17:38.900Z,25.57
2017-11-09T01:20:07.330Z,28.00
2017-11-09T01:22:36.508Z,30.10
2017-11-09T01:25:05.681Z,31.87
2017-11-09T01:27:34.229Z,27.30
2017-11-09T01:30:02.650Z,30.93
2017-11-09T01:32:31.070Z,29.40
2017-11-09T01:34:59.512Z,27.73
2017-11-09T01:37:27.940Z,27.50
2017-11-09T01:39:56.364Z,27.20
2017-11-09T01:42:24.792Z,22.53
2017-11-09T01:44:53.220Z,28.23
2017-11-09T01:47:21.298Z,23.33
2017-11-09T01:49:49.725Z,26.07
2017-11-09T01:52:18.158Z,29.17
2017-11-09T01:54:46.572Z,24.23
2017-11-09T01:57:14.653Z,24.00
2017-11-09T01:59:43.074Z,24.87
2017-11-09T02:02:11.501Z,28.30
2017-11-09T02:04:39.926Z,24.23
2017-11-09T02:07:07.995Z,24.07
2017-11-09T02:09:36.416Z,23.10
2017-11-09T02:12:05.608Z,20.37
2017-11-09T02:14:34.444Z,22.60
2017-11-09T02:17:02.855Z,18.50
2017-11-09T02:19:30.599Z,25.13
2017-11-09T02:21:58.330Z,25.90
2017-11-09T02:24:26.394Z,24.67
2017-11-09T02:26:54.475Z,21.00
2017-11-09T02:29:22.197Z,23.67
2017-11-09T02:31:50.701Z,23.70
2017-11-09T02:34:18.782Z,23.93
2017-11-09T02:36:47.195Z,25.43
2017-11-09T02:39:15.606Z,21.27
2017-11-09T02:41:44.459Z,19.80
2017-11-09T02:44:12.886Z,22.60
2017-11-09T02:46:40.607Z,19.20
2017-11-09T02:49:09.030Z,22.00
2017-11-09T02:51:37.446Z,18.53
2017-11-09T02:54:05.854Z,19.90
2017-11-09T02:56:33.591Z,17.00
2017-11-09T02:59:01.691Z,19.03
2017-11-09T03:01:30.497Z,20.33
2017-11-09T03:03:59.696Z,20.33
2017-11-09T03:06:28.868Z,21.23
2017-11-09T03:08:57.285Z,19.60
2017-11-09T03:11:25.971Z,19.97
2017-11-09T03:13:54.387Z,18.70
2017-11-09T03:16:22.848Z,21.77
2017-11-09T03:18:51.275Z,20.00
2017-11-09T03:21:19.691Z,22.57
2017-11-09T03:23:48.110Z,22.53
2017-11-09T03:26:16.540Z,21.20
2017-11-09T03:28:44.950Z,24.27
2017-11-09T03:31:13.423Z,21.13
2017-11-09T03:33:41.859Z,21.50
2017-11-09T03:36:11.040Z,22.87
2017-11-09T03:38:39.462Z,22.60
2017-11-09T03:41:07.905Z,22.93
2017-11-09T03:43:36.340Z,20.70
2017-11-09T03:46:04.100Z,23.27
2017-11-09T03:48:32.529Z,20.40
2017-11-09T03:51:01.712Z,20.07
2017-11-09T03:53:30.121Z,23.20
2017-11-09T03:55:59.311Z,24.60
2017-11-09T03:58:28.486Z,19.47
2017-11-09T04:00:56.899Z,20.90
2017-11-09T04:03:25.332Z,20.83
2017-11-09T04:05:53.734Z,22.53
2017-11-09T04:08:22.147Z,21.40
2017-11-09T04:10:50.572Z,19.83
2017-11-09T04:13:18.990Z,18.07
2017-11-09T04:15:48.177Z,24.80
2017-11-09T04:18:17.385Z,23.83
2017-11-09T04:20:45.811Z,24.33
2017-11-09T04:23:14.230Z,19.50
2017-11-09T04:25:43.443Z,19.73
2017-11-09T04:28:11.861Z,17.10
2017-11-09T04:30:40.270Z,20.40
2017-11-09T04:33:08.690Z,19.53
2017-11-09T04:35:37.109Z,19.43
2017-11-09T04:38:05.519Z,22.53
2017-11-09T04:40:34.727Z,23.27
2017-11-09T04:43:03.142Z,22.60
2017-11-09T04:45:31.554Z,18.53
2017-11-09T04:47:59.980Z,16.57
2017-11-09T04:50:28.470Z,20.20
2017-11-09T04:52:56.880Z,24.33
2017-11-09T04:55:25.121Z,26.73
2017-11-09T04:57:53.600Z,26.43
2017-11-09T05:00:22.007Z,20.97
2017-11-09T05:02:50.444Z,20.93
2017-11-09T05:05:18.540Z,26.10
2017-11-09T05:07:46.963Z,20.40
2017-11-09T05:10:15.397Z,17.07
2017-11-09T05:12:43.471Z,20.90
2017-11-09T05:15:11.891Z,17.83
2017-11-09T05:17:40.422Z,20.13
2017-11-09T05:20:08.833Z,17.57
2017-11-09T05:22:39.024Z,17.07
2017-11-09T05:25:07.460Z,18.33
2017-11-09T05:27:36.655Z,18.50
2017-11-09T05:30:05.662Z,18.37
2017-11-09T05:32:34.088Z,21.80
2017-11-09T05:35:02.514Z,16.00
2017-11-09T05:37:31.703Z,21.07
2017-11-09T05:40:00.910Z,17.97
2017-11-09T05:42:29.331Z,21.70
2017-11-09T05:44:57.751Z,24.23
2017-11-09T05:47:26.950Z,20.73
2017-11-09T05:49:56.128Z,22.93
2017-11-09T05:52:24.561Z,19.87
2017-11-09T05:54:53.015Z,19.53
2017-11-09T05:57:21.855Z,21.20
2017-11-09T05:59:50.278Z,21.67
2017-11-09T06:02:19.470Z,21.97
2017-11-09T06:04:48.654Z,16.77
2017-11-09T06:07:17.108Z,19.00
2017-11-09T06:09:45.540Z,19.90
2017-11-09T06:12:14.747Z,20.43
2017-11-09T06:14:43.161Z,23.90
2017-11-09T06:17:11.594Z,25.60
2017-11-09T06:19:40.784Z,21.37
2017-11-09T06:22:09.984Z,21.63
2017-11-09T06:24:39.195Z,18.80
2017-11-09T06:27:07.621Z,22.10
2017-11-09T06:29:36.072Z,23.17
2017-11-09T06:32:04.492Z,21.83
2017-11-09T06:34:32.911Z,22.30
2017-11-09T06:37:01.323Z,24.10
2017-11-09T06:39:29.758Z,25.03
2017-11-09T06:41:58.174Z,21.13
2017-11-09T06:44:26.584Z,23.17
2017-11-09T06:46:55.011Z,24.63
2017-11-09T06:49:23.442Z,22.20
2017-11-09T06:51:52.639Z,21.57
2017-11-09T06:54:21.069Z,19.60
2017-11-09T06:56:49.479Z,20.97
2017-11-09T06:59:17.885Z,18.67
2017-11-09T07:01:46.316Z,21.07
2017-11-09T07:04:14.756Z,21.50
2017-11-09T07:06:43.234Z,17.70
2017-11-09T07:09:12.439Z,18.03
2017-11-09T07:11:41.643Z,26.23
2017-11-09T07:14:10.048Z,17.93
2017-11-09T07:16:38.514Z,19.60
2017-11-09T07:19:06.943Z,19.67
2017-11-09T07:21:35.345Z,17.47
2017-11-09T07:24:03.773Z,19.87
2017-11-09T07:26:32.720Z,22.13
2017-11-09T07:29:01.896Z,21.00
2017-11-09T07:31:29.987Z,22.77
2017-11-09T07:33:59.163Z,20.70
2017-11-09T07:36:27.570Z,20.63
2017-11-09T07:38:56.016Z,18.77
2017-11-09T07:41:24.465Z,21.23
2017-11-09T07:43:52.877Z,18.30
2017-11-09T07:46:22.614Z,17.43
2017-11-09T07:48:51.031Z,22.67
2017-11-09T07:51:19.451Z,19.70
2017-11-09T07:53:48.660Z,21.53
2017-11-09T07:56:17.845Z,18.20
2017-11-09T07:58:46.675Z,19.23
2017-11-09T08:01:15.115Z,20.00
2017-11-09T08:03:44.435Z,19.17
2017-11-09T08:06:12.871Z,23.23
2017-11-09T08:08:41.314Z,19.00
2017-11-09T08:11:09.727Z,19.03
2017-11-09T08:13:39.659Z,18.87
2017-11-09T08:16:08.094Z,18.23
2017-11-09T08:18:36.514Z,23.63
2017-11-09T08:21:04.953Z,17.23
2017-11-09T08:23:33.908Z,18.50
2017-11-09T08:26:04.504Z,19.23
2017-11-09T08:28:35.458Z,24.30
2017-11-09T08:31:05.328Z,17.67
2017-11-09T08:33:36.651Z,18.57
2017-11-09T08:36:05.135Z,19.57
2017-11-09T08:38:33.361Z,17.27
2017-11-09T08:41:01.792Z,16.90
2017-11-09T08:43:30.217Z,16.67
2017-11-09T08:45:58.620Z,20.20
2017-11-09T08:48:27.065Z,18.40
2017-11-09T08:50:55.484Z,22.57
2017-11-09T08:53:24.664Z,28.93
2017-11-09T08:55:53.858Z,19.50
2017-11-09T08:58:23.039Z,21.27
2017-11-09T09:00:51.455Z,20.53
2017-11-09T09:03:19.900Z,23.93
2017-11-09T09:05:47.964Z,20.73
2017-11-09T09:08:16.368Z,16.87
2017-11-09T09:10:45.366Z,19.30
2017-11-09T09:13:14.566Z,19.60
2017-11-09T09:15:42.800Z,18.77
2017-11-09T09:18:11.049Z,17.00
2017-11-09T09:20:51.161Z,21.90
2017-11-09T09:23:20.172Z,21.37
2017-11-09T09:25:55.577Z,26.50
2017-11-09T09:28:33.737Z,16.97
2017-11-09T09:31:01.964Z,21.90
2017-11-09T09:33:32.096Z,20.43
2017-11-09T09:36:07.430Z,23.50
2017-11-09T09:38:37.807Z,21.37
2017-11-09T09:41:06.042Z,23.43
2017-11-09T09:43:34.280Z,23.30
2017-11-09T09:46:02.509Z,19.10
2017-11-09T09:48:30.736Z,22.23
2017-11-09T09:50:58.976Z,17.90
2017-11-09T09:53:27.480Z,18.63
2017-11-09T09:55:55.916Z,20.10
2017-11-09T09:58:24.360Z,17.43
2017-11-09T10:00:52.585Z,17.80
2017-11-09T10:03:21.003Z,19.20
2017-11-09T10:05:49.431Z,20.13
2017-11-09T10:08:17.840Z,20.90
2017-11-09T10:10:46.252Z,21.83
2017-11-09T10:13:15.459Z,18.13
2017-11-09T10:15:44.659Z,14.50
2017-11-09T10:18:13.845Z,16.43
2017-11-09T10:20:43.038Z,16.93
2017-11-09T10:23:12.219Z,25.10
2017-11-09T10:25:41.394Z,18.83
2017-11-09T10:28:10.836Z,21.80
2017-11-09T10:30:40.014Z,18.80
2017-11-09T10:33:10.246Z,18.73
2017-11-09T10:35:38.876Z,21.53
2017-11-09T10:38:07.297Z,19.60
2017-11-09T10:40:35.719Z,17.20
2017-11-09T10:43:04.404Z,19.97
2017-11-09T10:45:32.816Z,24.70
2017-11-09T10:48:01.232Z,20.47
2017-11-09T10:50:30.672Z,22.20
2017-11-09T10:52:59.097Z,15.57
2017-11-09T10:55:27.516Z,16.33
2017-11-09T10:57:56.003Z,21.50
2017-11-09T11:00:29.926Z,19.87
2017-11-09T11:02:58.356Z,26.13
2017-11-09T11:05:26.772Z,24.60
2017-11-09T11:07:55.187Z,24.60
2017-11-09T11:10:23.627Z,35.60
2017-11-09T11:12:52.041Z,28.00
2017-11-09T11:15:20.450Z,21.20
2017-11-09T11:17:48.882Z,16.70
2017-11-09T11:20:17.115Z,23.60
2017-11-09T11:22:46.302Z,20.30
2017-11-09T11:25:15.513Z,22.00
2017-11-09T11:27:44.710Z,19.50
2017-11-09T11:30:13.201Z,21.10
2017-11-09T11:32:41.274Z,17.70
2017-11-09T11:35:09.689Z,18.53
2017-11-09T11:37:38.096Z,19.77
2017-11-09T11:40:06.532Z,17.43
2017-11-09T11:42:34.952Z,18.67
2017-11-09T11:45:03.361Z,20.07
2017-11-09T11:47:34.027Z,23.53
2017-11-09T11:50:02.442Z,23.77
2017-11-09T11:52:30.862Z,19.10
2017-11-09T11:54:59.287Z,18.70
2017-11-09T11:57:27.704Z,22.57
2017-11-09T11:59:56.896Z,20.87
2017-11-09T12:02:25.583Z,20.70
2017-11-09T12:04:54.775Z,22.17
2017-11-09T12:07:24.007Z,20.43
2017-11-09T12:09:52.443Z,22.30
2017-11-09T12:12:24.549Z,23.63
2017-11-09T12:14:52.978Z,18.30
2017-11-09T12:17:21.395Z,20.93
2017-11-09T12:19:49.811Z,18.73
2017-11-09T12:22:18.243Z,20.60
2017-11-09T12:24:46.476Z,19.80
2017-11-09T12:27:14.903Z,17.53
2017-11-09T12:29:43.333Z,19.57
2017-11-09T12:32:11.755Z,24.53
2017-11-09T12:34:40.175Z,18.80
2017-11-09T12:37:08.603Z,23.10
2017-11-09T12:39:37.794Z,19.00
2017-11-09T12:42:06.641Z,20.80
2017-11-09T12:44:35.068Z,25.30
2017-11-09T12:47:03.905Z,21.93
2017-11-09T12:49:32.333Z,23.63
2017-11-09T12:52:01.524Z,18.93
2017-11-09T12:54:30.705Z,18.20
2017-11-09T12:56:59.118Z,22.47
2017-11-09T12:59:27.548Z,22.93
2017-11-09T13:01:55.770Z,19.20
2017-11-09T13:04:24.270Z,21.10
2017-11-09T13:06:52.692Z,23.97
2017-11-09T13:09:21.101Z,19.67
2017-11-09T13:11:49.585Z,15.53
2017-11-09T13:14:17.835Z,24.77
2017-11-09T13:16:46.064Z,17.07
2017-11-09T13:19:14.293Z,16.03
2017-11-09T13:21:43.485Z,16.33
2017-11-09T13:24:11.717Z,21.80
2017-11-09T13:26:40.969Z,18.57
2017-11-09T13:29:10.183Z,17.33
2017-11-09T13:31:38.627Z,17.87
2017-11-09T13:34:07.812Z,16.87
2017-11-09T13:36:36.263Z,16.77
2017-11-09T13:39:03.983Z,17.13
2017-11-09T13:41:32.990Z,18.50
2017-11-09T13:44:01.421Z,18.60
2017-11-09T13:46:29.831Z,15.53
2017-11-09T13:48:59.017Z,21.67
2017-11-09T13:51:27.678Z,22.33
2017-11-09T13:53:56.097Z,20.93
2017-11-09T13:56:25.300Z,18.90
2017-11-09T13:58:53.965Z,22.10
2017-11-09T14:01:23.138Z,22.60
2017-11-09T14:03:52.331Z,21.50
2017-11-09T14:06:20.758Z,23.10
2017-11-09T14:08:49.162Z,23.90
2017-11-09T14:11:18.170Z,26.63
2017-11-09T14:13:46.600Z,22.87
2017-11-09T14:16:15.766Z,25.73
2017-11-09T14:18:44.185Z,22.00
2017-11-09T14:21:12.620Z,18.00
2017-11-09T14:23:40.854Z,28.47
2017-11-09T14:26:09.328Z,17.80
2017-11-09T14:28:38.019Z,23.73
2017-11-09T14:31:06.433Z,17.87
2017-11-09T14:33:34.867Z,28.67
2017-11-09T14:36:03.301Z,32.47
2017-11-09T14:38:32.496Z,22.03
2017-11-09T14:41:00.913Z,21.00
2017-11-09T14:43:29.343Z,19.63
2017-11-09T14:45:57.759Z,18.57
2017-11-09T14:48:26.935Z,19.50
2017-11-09T14:50:55.375Z,24.03
2017-11-09T14:53:25.075Z,24.97
2017-11-09T14:55:53.495Z,25.83
2017-11-09T14:58:21.925Z,26.97
2017-11-09T15:00:50.335Z,26.67
2017-11-09T15:03:19.001Z,25.07
2017-11-09T15:05:47.426Z,26.37
2017-11-09T15:08:15.658Z,25.80
2017-11-09T15:10:43.893Z,25.50
2017-11-09T15:13:13.086Z,20.97
2017-11-09T15:15:42.262Z,22.17
2017-11-09T15:18:10.326Z,21.23
2017-11-09T15:20:38.750Z,20.80
2017-11-09T15:23:07.052Z,19.87
2017-11-09T15:25:35.352Z,22.50
2017-11-09T15:28:03.262Z,17.93
2017-11-09T15:30:31.506Z,23.20
2017-11-09T15:32:59.763Z,27.57
2017-11-09T15:35:28.022Z,21.43
2017-11-09T15:37:56.440Z,23.47
2017-11-09T15:40:25.625Z,25.30
2017-11-09T15:42:54.054Z,18.20
2017-11-09T15:45:22.503Z,19.43
2017-11-09T15:47:51.690Z,22.30
2017-11-09T15:50:21.743Z,22.27
2017-11-09T15:52:50.168Z,20.60
2017-11-09T15:55:18.574Z,19.00
2017-11-09T15:57:47.919Z,26.10
2017-11-09T16:00:16.337Z,26.53
2017-11-09T16:02:44.747Z,21.77
2017-11-09T16:05:13.183Z,22.17
2017-11-09T16:07:45.121Z,22.37
2017-11-09T16:10:13.355Z,22.73
2017-11-09T16:12:42.551Z,19.87
2017-11-09T16:15:11.741Z,29.13
2017-11-09T16:17:40.930Z,19.53
2017-11-09T16:20:10.123Z,20.57
2017-11-09T16:22:39.325Z,19.90
2017-11-09T16:25:08.504Z,16.87
2017-11-09T16:27:36.944Z,29.10
2017-11-09T16:30:09.826Z,20.90
2017-11-09T16:32:38.247Z,19.67
2017-11-09T16:35:07.435Z,19.10
2017-11-09T16:37:35.866Z,19.40
2017-11-09T16:40:03.599Z,17.40
2017-11-09T16:42:36.610Z,21.27
2017-11-09T16:45:05.808Z,17.00
2017-11-09T16:47:34.247Z,21.70
2017-11-09T16:50:02.320Z,18.87
2017-11-09T16:52:31.536Z,26.50
2017-11-09T16:55:00.727Z,23.23
2017-11-09T16:57:29.940Z,19.50
2017-11-09T16:59:59.138Z,23.10
2017-11-09T17:02:28.327Z,22.20
2017-11-09T17:04:57.517Z,25.20
2017-11-09T17:07:26.720Z,20.60
2017-11-09T17:09:55.911Z,23.90
2017-11-09T17:12:25.088Z,20.83
2017-11-09T17:14:59.021Z,22.50
2017-11-09T17:17:28.265Z,24.33
2017-11-09T17:19:56.701Z,21.17
2017-11-09T17:22:25.907Z,22.57
2017-11-09T17:24:54.319Z,23.70
2017-11-09T17:27:22.788Z,21.70
2017-11-09T17:29:51.224Z,21.13
2017-11-09T17:32:20.413Z,23.67
2017-11-09T17:34:48.837Z,26.50
2017-11-09T17:37:19.214Z,26.80
2017-11-09T17:39:49.148Z,24.87
2017-11-09T17:42:19.281Z,22.67
2017-11-09T17:44:47.715Z,23.20
2017-11-09T17:47:15.946Z,21.70
2017-11-09T17:49:44.027Z,23.17
2017-11-09T17:52:12.472Z,24.73
2017-11-09T17:54:41.687Z,26.37
2017-11-09T17:57:10.105Z,26.60
2017-11-09T17:59:42.371Z,19.50
2017-11-09T18:02:10.813Z,23.80
2017-11-09T18:04:39.252Z,24.33
2017-11-09T18:07:07.715Z,21.20
2017-11-09T18:09:35.831Z,20.23
2017-11-09T18:12:05.054Z,25.60
2017-11-09T18:14:33.529Z,19.57
2017-11-09T18:17:02.013Z,24.00
2017-11-09T18:19:31.020Z,19.73
2017-11-09T18:22:01.253Z,23.10
2017-11-09T18:24:29.694Z,32.03
2017-11-09T18:26:58.249Z,24.20
2017-11-09T18:29:27.504Z,22.63
2017-11-09T18:32:01.575Z,22.57
2017-11-09T18:34:30.023Z,24.70
2017-11-09T18:36:58.256Z,24.23
2017-11-09T18:39:26.740Z,27.53
2017-11-09T18:41:55.232Z,27.03
2017-11-09T18:44:23.696Z,23.50
2017-11-09T18:46:52.179Z,24.40
2017-11-09T18:49:20.692Z,27.77
2017-11-09T18:51:49.177Z,23.77
2017-11-09T18:54:17.652Z,21.43
2017-11-09T18:59:25.447Z,23.23
2017-11-09T19:01:54.130Z,25.77
2017-11-09T19:04:22.602Z,22.93
2017-11-09T19:06:51.049Z,21.97
2017-11-09T19:09:20.287Z,24.70
2017-11-09T19:11:48.851Z,24.17
2017-11-09T19:14:17.427Z,31.20
2017-11-09T19:16:46.034Z,26.57
2017-11-09T19:19:14.613Z,28.40
2017-11-09T19:21:43.062Z,25.73
2017-11-09T19:24:12.068Z,25.15
2017-11-09T19:26:40.506Z,29.90
2017-11-09T19:29:08.970Z,23.30
2017-11-09T19:31:37.483Z,23.90
2017-11-09T19:34:05.976Z,31.00
2017-11-09T19:36:34.431Z,27.50
2017-11-09T19:39:03.158Z,26.30
2017-11-09T19:41:31.917Z,22.83
2017-11-09T19:44:01.142Z,24.33
2017-11-09T19:49:20.629Z,26.30
2017-11-09T19:51:49.374Z,25.02
2017-11-09T19:54:18.605Z,27.10
2017-11-09T19:56:47.100Z,25.30
2017-11-09T19:59:15.599Z,25.80
2017-11-09T20:04:40.798Z,28.43
2017-11-09T20:07:09.265Z,27.97
2017-11-09T20:12:17.338Z,29.57
2017-11-09T20:14:45.793Z,27.23
2017-11-09T20:19:53.607Z,24.73
2017-11-09T20:22:22.175Z,26.07
2017-11-09T20:24:50.867Z,24.03
2017-11-09T20:27:19.312Z,26.00
2017-11-09T20:29:47.819Z,29.03
2017-11-09T20:32:16.273Z,25.87
2017-11-09T20:34:44.755Z,29.83
2017-11-09T20:37:13.311Z,35.30
2017-11-09T20:39:41.751Z,25.37
2017-11-09T20:42:10.273Z,27.57
2017-11-09T20:44:39.617Z,28.77
2017-11-09T20:47:08.052Z,36.40
2017-11-09T20:49:36.516Z,30.17
2017-11-09T20:52:04.744Z,30.77
2017-11-09T20:54:33.246Z,32.90
2017-11-09T20:57:01.750Z,31.80
2017-11-09T20:59:30.365Z,29.73
2017-11-09T21:01:58.880Z,28.63
2017-11-09T21:04:27.323Z,29.70
2017-11-09T21:06:55.844Z,25.43
2017-11-09T21:09:24.270Z,28.10
2017-11-09T21:11:53.081Z,25.57
2017-11-09T21:14:21.556Z,30.33
2017-11-09T21:16:50.756Z,27.73
2017-11-09T21:19:19.943Z,31.60
2017-11-09T21:21:49.134Z,32.40
2017-11-09T21:24:18.302Z,27.80
2017-11-09T21:26:47.054Z,28.67
2017-11-09T21:29:15.467Z,31.20
2017-11-09T21:31:43.880Z,28.10
2017-11-09T21:34:13.076Z,25.33
2017-11-09T21:36:42.266Z,28.10
2017-11-09T21:39:11.443Z,33.57
2017-11-09T21:41:39.880Z,29.37
2017-11-09T21:44:08.295Z,34.07
2017-11-09T21:46:36.706Z,31.07
2017-11-09T21:49:05.927Z,31.33
2017-11-09T21:51:34.384Z,31.60
2017-11-09T21:54:03.565Z,31.87
2017-11-09T21:56:32.774Z,27.30
2017-11-09T21:59:01.954Z,29.03
2017-11-09T22:01:30.385Z,28.47
2017-11-09T22:03:58.816Z,30.13
2017-11-09T22:06:27.233Z,31.17
2017-11-09T22:08:55.639Z,28.50
2017-11-09T22:11:24.092Z,28.47
2017-11-09T22:13:52.521Z,29.13
2017-11-09T22:16:20.934Z,25.67
2017-11-09T22:18:49.371Z,27.27
2017-11-09T22:21:17.818Z,29.43
2017-11-09T22:23:46.243Z,28.93
2017-11-09T22:26:14.923Z,29.60
2017-11-09T22:28:43.360Z,26.17
2017-11-09T22:31:12.007Z,30.67
2017-11-09T22:33:41.207Z,30.60
2017-11-09T22:36:10.379Z,35.00
2017-11-09T22:38:38.796Z,27.37
2017-11-09T22:41:07.231Z,29.37
2017-11-09T22:43:35.643Z,25.60
2017-11-09T22:46:04.636Z,29.57
2017-11-09T22:48:33.834Z,30.50
2017-11-09T22:51:03.017Z,26.17
2017-11-09T22:53:32.199Z,26.43
2017-11-09T22:56:01.213Z,30.50
2017-11-09T22:58:30.383Z,27.67
2017-11-09T23:00:58.796Z,29.77
2017-11-09T23:03:27.990Z,26.07
2017-11-09T23:05:57.213Z,26.83
2017-11-09T23:08:25.643Z,31.67
2017-11-09T23:10:53.879Z,30.90
2017-11-09T23:13:22.099Z,30.30
2017-11-09T23:15:50.524Z,32.53
2017-11-09T23:18:18.964Z,32.43
2017-11-09T23:20:47.956Z,28.27
2017-11-09T23:23:17.130Z,26.67
2017-11-09T23:25:45.557Z,29.87
2017-11-09T23:28:13.975Z,33.60
2017-11-09T23:30:43.398Z,28.20
2017-11-09T23:33:11.838Z,33.27
2017-11-09T23:35:40.246Z,28.87
2017-11-09T23:38:08.648Z,35.73
2017-11-09T23:40:37.860Z,24.67
2017-11-09T23:43:07.054Z,23.33
2017-11-09T23:45:35.480Z,36.80
2017-11-09T23:48:03.928Z,28.97
2017-11-09T23:50:32.333Z,30.40
2017-11-09T23:53:00.747Z,27.77
2017-11-09T23:55:29.944Z,29.57
2017-11-09T23:57:58.170Z,27.93
